sensor_id;sensor_type;location;lat;lon;timestamp;pressure;altitude;pressure_sealevel;temperature;humidity
7297;BME280;40758;54.038;11.684;2022-11-25T00:01:55;101269.69;;;2.74;100.00
7297;BME280;40758;54.038;11.684;2022-11-25T00:04:25;101275.13;;;2.71;100.00
7297;BME280;40758;54.038;11.684;2022-11-25T00:06:55;101276.78;;;2.74;100.00
7297;BME280;40758;54.038;11.684;2022-11-25T00:09:29;101264.03;;;2.62;100.00
7297;BME280;40758;54.038;11.684;2022-11-25T00:11:57;101266.63;;;2.63;100.00
7297;BME280;40758;54.038;11.684;2022-11-25T00:14:27;101264.28;;;2.56;100.00
7297;BME280;40758;54.038;11.684;2022-11-25T00:16:57;101269.66;;;2.54;100.00
7297;BME280;40758;54.038;11.684;2022-11-25T00:19:27;101260.34;;;2.44;100.00
7297;BME280;40758;54.038;11.684;2022-11-25T00:21:58;101256.88;;;2.42;100.00
7297;BME280;40758;54.038;11.684;2022-11-25T00:24:28;101258.75;;;2.40;100.00
7297;BME280;40758;54.038;11.684;2022-11-25T00:26:57;101257.69;;;2.44;100.00
7297;BME280;40758;54.038;11.684;2022-11-25T00:29:26;101255.97;;;2.43;100.00
7297;BME280;40758;54.038;11.684;2022-11-25T00:31:56;101253.25;;;2.44;100.00
7297;BME280;40758;54.038;11.684;2022-11-25T00:34:29;101249.59;;;2.47;100.00
7297;BME280;40758;54.038;11.684;2022-11-25T00:36:59;101255.16;;;2.41;100.00
7297;BME280;40758;54.038;11.684;2022-11-25T00:39:29;101248.41;;;2.34;100.00
7297;BME280;40758;54.038;11.684;2022-11-25T00:41:58;101240.50;;;2.32;100.00
7297;BME280;40758;54.038;11.684;2022-11-25T00:44:44;101246.19;;;2.23;100.00
7297;BME280;40758;54.038;11.684;2022-11-25T00:47:19;101244.38;;;2.24;100.00
7297;BME280;40758;54.038;11.684;2022-11-25T00:49:53;101241.00;;;2.20;100.00
7297;BME280;40758;54.038;11.684;2022-11-25T00:52:25;101247.19;;;2.21;100.00
7297;BME280;40758;54.038;11.684;2022-11-25T00:55:00;101247.91;;;2.24;100.00
7297;BME280;40758;54.038;11.684;2022-11-25T00:57:33;101255.91;;;2.23;100.00
7297;BME280;40758;54.038;11.684;2022-11-25T01:00:03;101259.63;;;2.19;100.00
7297;BME280;40758;54.038;11.684;2022-11-25T01:02:34;101256.97;;;2.19;100.00
7297;BME280;40758;54.038;11.684;2022-11-25T01:05:05;101258.75;;;2.18;100.00
7297;BME280;40758;54.038;11.684;2022-11-25T01:07:34;101267.56;;;2.19;100.00
7297;BME280;40758;54.038;11.684;2022-11-25T01:10:08;101265.84;;;2.18;100.00
7297;BME280;40758;54.038;11.684;2022-11-25T01:12:38;101273.13;;;2.13;100.00
7297;BME280;40758;54.038;11.684;2022-11-25T01:15:09;101260.78;;;2.12;100.00
7297;BME280;40758;54.038;11.684;2022-11-25T01:17:42;101260.78;;;2.12;100.00
7297;BME280;40758;54.038;11.684;2022-11-25T01:20:13;101271.44;;;2.10;100.00
7297;BME280;40758;54.038;11.684;2022-11-25T01:22:43;101268.06;;;2.07;100.00
7297;BME280;40758;54.038;11.684;2022-11-25T01:25:13;101271.63;;;2.06;100.00
7297;BME280;40758;54.038;11.684;2022-11-25T01:27:42;101266.38;;;2.04;100.00
7297;BME280;40758;54.038;11.684;2022-11-25T01:32:42;101270.00;;;2.03;100.00
7297;BME280;40758;54.038;11.684;2022-11-25T01:35:13;101276.94;;;2.06;100.00
7297;BME280;40758;54.038;11.684;2022-11-25T01:37:43;101282.13;;;2.09;100.00
7297;BME280;40758;54.038;11.684;2022-11-25T01:40:12;101274.19;;;2.09;100.00
7297;BME280;40758;54.038;11.684;2022-11-25T01:42:42;101271.59;;;2.07;100.00
7297;BME280;40758;54.038;11.684;2022-11-25T01:45:35;101270.47;;;2.13;100.00
7297;BME280;40758;54.038;11.684;2022-11-25T01:48:17;101273.16;;;2.11;100.00
7297;BME280;40758;54.038;11.684;2022-11-25T01:50:49;101268.88;;;2.09;100.00
7297;BME280;40758;54.038;11.684;2022-11-25T01:53:20;101281.25;;;2.08;100.00
7297;BME280;40758;54.038;11.684;2022-11-25T01:55:55;101267.19;;;2.06;100.00
7297;BME280;40758;54.038;11.684;2022-11-25T01:58:29;101269.91;;;2.04;100.00
7297;BME280;40758;54.038;11.684;2022-11-25T02:01:00;101276.06;;;2.05;100.00
7297;BME280;40758;54.038;11.684;2022-11-25T02:03:36;101277.84;;;2.04;100.00
7297;BME280;40758;54.038;11.684;2022-11-25T02:06:14;101279.59;;;2.06;100.00
7297;BME280;40758;54.038;11.684;2022-11-25T02:08:52;101283.97;;;2.07;100.00
7297;BME280;40758;54.038;11.684;2022-11-25T02:11:30;101281.38;;;2.05;100.00
7297;BME280;40758;54.038;11.684;2022-11-25T02:14:01;101279.72;;;2.02;100.00
7297;BME280;40758;54.038;11.684;2022-11-25T02:16:36;101278.00;;;2.01;100.00
7297;BME280;40758;54.038;11.684;2022-11-25T02:19:19;101285.75;;;2.06;100.00
7297;BME280;40758;54.038;11.684;2022-11-25T02:22:00;101280.50;;;2.04;100.00
7297;BME280;40758;54.038;11.684;2022-11-25T02:24:42;101284.16;;;2.02;100.00
7297;BME280;40758;54.038;11.684;2022-11-25T02:27:14;101286.75;;;2.03;100.00
7297;BME280;40758;54.038;11.684;2022-11-25T02:29:47;101288.53;;;2.03;100.00
7297;BME280;40758;54.038;11.684;2022-11-25T02:32:23;101292.06;;;2.03;100.00
7297;BME280;40758;54.038;11.684;2022-11-25T02:34:54;101293.88;;;2.01;100.00
7297;BME280;40758;54.038;11.684;2022-11-25T02:37:23;101295.72;;;1.99;100.00
7297;BME280;40758;54.038;11.684;2022-11-25T02:39:53;101296.53;;;2.01;100.00
7297;BME280;40758;54.038;11.684;2022-11-25T02:42:29;101290.44;;;1.99;100.00
7297;BME280;40758;54.038;11.684;2022-11-25T02:44:59;101285.81;;;2.04;100.00
7297;BME280;40758;54.038;11.684;2022-11-25T02:47:28;101287.59;;;2.04;100.00
7297;BME280;40758;54.038;11.684;2022-11-25T02:49:57;101284.78;;;2.09;100.00
7297;BME280;40758;54.038;11.684;2022-11-25T02:52:28;101283.97;;;2.07;100.00
7297;BME280;40758;54.038;11.684;2022-11-25T02:54:57;101280.63;;;2.01;100.00
7297;BME280;40758;54.038;11.684;2022-11-25T02:57:28;101287.53;;;2.06;100.00
7297;BME280;40758;54.038;11.684;2022-11-25T02:59:57;101284.94;;;2.04;100.00
7297;BME280;40758;54.038;11.684;2022-11-25T03:02:26;101285.66;;;2.09;100.00
7297;BME280;40758;54.038;11.684;2022-11-25T03:04:59;101279.34;;;2.12;100.00
7297;BME280;40758;54.038;11.684;2022-11-25T03:07:29;101286.50;;;2.10;100.00
7297;BME280;40758;54.038;11.684;2022-11-25T03:09:58;101275.91;;;2.10;100.00
7297;BME280;40758;54.038;11.684;2022-11-25T03:12:29;101278.63;;;2.08;100.00
7297;BME280;40758;54.038;11.684;2022-11-25T03:14:58;101279.09;;;2.18;100.00
7297;BME280;40758;54.038;11.684;2022-11-25T03:17:29;101282.66;;;2.17;100.00
7297;BME280;40758;54.038;11.684;2022-11-25T03:20:02;101282.41;;;2.23;100.00
7297;BME280;40758;54.038;11.684;2022-11-25T03:22:34;101276.88;;;2.29;100.00
7297;BME280;40758;54.038;11.684;2022-11-25T03:25:06;101279.38;;;2.33;100.00
7297;BME280;40758;54.038;11.684;2022-11-25T03:27:37;101283.59;;;2.37;100.00
7297;BME280;40758;54.038;11.684;2022-11-25T03:30:11;101276.75;;;2.32;100.00
7297;BME280;40758;54.038;11.684;2022-11-25T03:32:40;101283.75;;;2.34;100.00
7297;BME280;40758;54.038;11.684;2022-11-25T03:35:10;101276.47;;;2.39;100.00
7297;BME280;40758;54.038;11.684;2022-11-25T03:37:40;101271.06;;;2.41;100.00
7297;BME280;40758;54.038;11.684;2022-11-25T03:40:12;101276.38;;;2.41;100.00
7297;BME280;40758;54.038;11.684;2022-11-25T03:42:44;101272.28;;;2.54;100.00
7297;BME280;40758;54.038;11.684;2022-11-25T03:45:15;101265.25;;;2.53;100.00
7297;BME280;40758;54.038;11.684;2022-11-25T03:47:45;101260.41;;;2.42;100.00
7297;BME280;40758;54.038;11.684;2022-11-25T03:50:16;101255.81;;;2.26;100.00
7297;BME280;40758;54.038;11.684;2022-11-25T03:52:45;101254.50;;;2.14;100.00
7297;BME280;40758;54.038;11.684;2022-11-25T03:55:14;101259.44;;;2.01;100.00
7297;BME280;40758;54.038;11.684;2022-11-25T03:57:45;101260.84;;;1.88;100.00
7297;BME280;40758;54.038;11.684;2022-11-25T04:00:14;101266.38;;;1.82;100.00
7297;BME280;40758;54.038;11.684;2022-11-25T04:02:44;101257.13;;;1.71;100.00
7297;BME280;40758;54.038;11.684;2022-11-25T04:05:13;101257.69;;;1.55;100.00
7297;BME280;40758;54.038;11.684;2022-11-25T04:07:49;101254.41;;;1.49;100.00
7297;BME280;40758;54.038;11.684;2022-11-25T04:10:24;101264.53;;;1.61;100.00
7297;BME280;40758;54.038;11.684;2022-11-25T04:12:55;101260.97;;;1.62;100.00
7297;BME280;40758;54.038;11.684;2022-11-25T04:15:23;101262.44;;;1.47;100.00
7297;BME280;40758;54.038;11.684;2022-11-25T04:17:54;101264.25;;;1.45;100.00
7297;BME280;40758;54.038;11.684;2022-11-25T04:20:22;101264.91;;;1.52;100.00
7297;BME280;40758;54.038;11.684;2022-11-25T04:22:51;101259.88;;;1.44;100.00
7297;BME280;40758;54.038;11.684;2022-11-25T04:25:21;101263.91;;;1.31;100.00
7297;BME280;40758;54.038;11.684;2022-11-25T04:27:56;101259.59;;;1.29;100.00
7297;BME280;40758;54.038;11.684;2022-11-25T04:30:25;101256.03;;;1.30;100.00
7297;BME280;40758;54.038;11.684;2022-11-25T04:32:54;101260.91;;;1.17;100.00
7297;BME280;40758;54.038;11.684;2022-11-25T04:35:23;101259.69;;;1.26;100.00
7297;BME280;40758;54.038;11.684;2022-11-25T04:37:53;101258.94;;;1.22;100.00
7297;BME280;40758;54.038;11.684;2022-11-25T04:40:22;101256.78;;;1.08;100.00
7297;BME280;40758;54.038;11.684;2022-11-25T04:42:51;101257.88;;;1.03;100.00
7297;BME280;40758;54.038;11.684;2022-11-25T04:45:31;101251.66;;;1.04;100.00
7297;BME280;40758;54.038;11.684;2022-11-25T04:48:20;101253.41;;;1.05;100.00
7297;BME280;40758;54.038;11.684;2022-11-25T04:50:49;101257.75;;;1.06;100.00
7297;BME280;40758;54.038;11.684;2022-11-25T04:53:18;101263.00;;;1.07;100.00
7297;BME280;40758;54.038;11.684;2022-11-25T04:55:47;101261.75;;;1.17;100.00
7297;BME280;40758;54.038;11.684;2022-11-25T04:58:16;101266.75;;;1.25;100.00
7297;BME280;40758;54.038;11.684;2022-11-25T05:01:06;101273.97;;;1.21;100.00
7297;BME280;40758;54.038;11.684;2022-11-25T05:03:37;101271.63;;;1.12;100.00
7297;BME280;40758;54.038;11.684;2022-11-25T05:06:14;101271.75;;;1.09;100.00
7297;BME280;40758;54.038;11.684;2022-11-25T05:08:43;101273.50;;;1.10;100.00
7297;BME280;40758;54.038;11.684;2022-11-25T05:11:15;101274.56;;;1.30;100.00
7297;BME280;40758;54.038;11.684;2022-11-25T05:13:46;101279.69;;;1.34;100.00
7297;BME280;40758;54.038;11.684;2022-11-25T05:16:16;101287.72;;;1.54;100.00
7297;BME280;40758;54.038;11.684;2022-11-25T05:18:45;101291.59;;;1.69;100.00
7297;BME280;40758;54.038;11.684;2022-11-25T05:21:14;101290.91;;;1.64;100.00
7297;BME280;40758;54.038;11.684;2022-11-25T05:23:43;101286.66;;;1.60;100.00
7297;BME280;40758;54.038;11.684;2022-11-25T05:26:11;101288.50;;;1.58;100.00
7297;BME280;40758;54.038;11.684;2022-11-25T05:28:42;101292.69;;;1.63;100.00
7297;BME280;40758;54.038;11.684;2022-11-25T05:31:16;101300.69;;;1.62;100.00
7297;BME280;40758;54.038;11.684;2022-11-25T05:33:45;101292.88;;;1.59;100.00
7297;BME280;40758;54.038;11.684;2022-11-25T05:36:17;101289.13;;;1.65;100.00
7297;BME280;40758;54.038;11.684;2022-11-25T05:38:45;101295.28;;;1.65;100.00
7297;BME280;40758;54.038;11.684;2022-11-25T05:41:14;101290.09;;;1.62;100.00
7297;BME280;40758;54.038;11.684;2022-11-25T05:43:43;101283.19;;;1.58;100.00
7297;BME280;40758;54.038;11.684;2022-11-25T05:46:13;101286.81;;;1.55;100.00
7297;BME280;40758;54.038;11.684;2022-11-25T05:48:44;101294.63;;;1.60;100.00
7297;BME280;40758;54.038;11.684;2022-11-25T05:51:13;101303.47;;;1.59;100.00
7297;BME280;40758;54.038;11.684;2022-11-25T05:53:42;101309.78;;;1.55;100.00
7297;BME280;40758;54.038;11.684;2022-11-25T05:56:11;101313.25;;;1.57;100.00
7297;BME280;40758;54.038;11.684;2022-11-25T05:58:40;101317.72;;;1.55;100.00
7297;BME280;40758;54.038;11.684;2022-11-25T06:01:11;101325.44;;;1.61;100.00
7297;BME280;40758;54.038;11.684;2022-11-25T06:03:43;101317.59;;;1.59;100.00
7297;BME280;40758;54.038;11.684;2022-11-25T06:06:12;101316.59;;;1.62;100.00
7297;BME280;40758;54.038;11.684;2022-11-25T06:08:40;101317.69;;;1.56;100.00
7297;BME280;40758;54.038;11.684;2022-11-25T06:11:12;101320.91;;;1.65;100.00
7297;BME280;40758;54.038;11.684;2022-11-25T06:13:41;101321.25;;;1.55;100.00
7297;BME280;40758;54.038;11.684;2022-11-25T06:16:17;101330.88;;;1.58;100.00
7297;BME280;40758;54.038;11.684;2022-11-25T06:18:49;101325.44;;;1.61;100.00
7297;BME280;40758;54.038;11.684;2022-11-25T06:21:18;101332.69;;;1.56;100.00
7297;BME280;40758;54.038;11.684;2022-11-25T06:23:47;101334.00;;;1.44;100.00
7297;BME280;40758;54.038;11.684;2022-11-25T06:26:18;101329.50;;;1.48;100.00
7297;BME280;40758;54.038;11.684;2022-11-25T06:28:52;101328.06;;;1.38;100.00
7297;BME280;40758;54.038;11.684;2022-11-25T06:31:24;101333.72;;;1.29;100.00
7297;BME280;40758;54.038;11.684;2022-11-25T06:33:55;101333.59;;;1.32;100.00
7297;BME280;40758;54.038;11.684;2022-11-25T06:36:24;101345.91;;;1.33;100.00
7297;BME280;40758;54.038;11.684;2022-11-25T06:38:53;101341.56;;;1.30;100.00
7297;BME280;40758;54.038;11.684;2022-11-25T06:41:22;101336.28;;;1.30;100.00
7297;BME280;40758;54.038;11.684;2022-11-25T06:43:51;101349.59;;;1.29;100.00
7297;BME280;40758;54.038;11.684;2022-11-25T06:46:21;101345.16;;;1.29;100.00
7297;BME280;40758;54.038;11.684;2022-11-25T06:48:52;101335.16;;;1.37;100.00
7297;BME280;40758;54.038;11.684;2022-11-25T06:51:22;101342.41;;;1.32;100.00
7297;BME280;40758;54.038;11.684;2022-11-25T06:53:51;101348.56;;;1.33;100.00
7297;BME280;40758;54.038;11.684;2022-11-25T06:56:23;101358.75;;;1.43;100.00
7297;BME280;40758;54.038;11.684;2022-11-25T06:58:53;101357.88;;;1.43;100.00
7297;BME280;40758;54.038;11.684;2022-11-25T07:01:25;101354.31;;;1.44;100.00
7297;BME280;40758;54.038;11.684;2022-11-25T07:03:57;101348.38;;;1.37;100.00
7297;BME280;40758;54.038;11.684;2022-11-25T07:06:29;101349.28;;;1.36;100.00
7297;BME280;40758;54.038;11.684;2022-11-25T07:08:59;101353.03;;;1.31;100.00
7297;BME280;40758;54.038;11.684;2022-11-25T07:11:30;101345.00;;;1.34;100.00
7297;BME280;40758;54.038;11.684;2022-11-25T07:14:02;101352.94;;;1.34;100.00
7297;BME280;40758;54.038;11.684;2022-11-25T07:16:32;101342.13;;;1.40;100.00
7297;BME280;40758;54.038;11.684;2022-11-25T07:19:01;101343.88;;;1.41;100.00
7297;BME280;40758;54.038;11.684;2022-11-25T07:21:33;101357.19;;;1.38;100.00
7297;BME280;40758;54.038;11.684;2022-11-25T07:24:06;101353.75;;;1.36;100.00
7297;BME280;40758;54.038;11.684;2022-11-25T07:26:38;101362.41;;;1.41;100.00
7297;BME280;40758;54.038;11.684;2022-11-25T07:29:15;101367.91;;;1.35;100.00
7297;BME280;40758;54.038;11.684;2022-11-25T07:32:04;101372.34;;;1.34;100.00
7297;BME280;40758;54.038;11.684;2022-11-25T07:34:37;101376.81;;;1.32;100.00
7297;BME280;40758;54.038;11.684;2022-11-25T07:37:07;101381.72;;;1.43;100.00
7297;BME280;40758;54.038;11.684;2022-11-25T07:39:36;101377.38;;;1.42;100.00
7297;BME280;40758;54.038;11.684;2022-11-25T07:42:05;101388.56;;;1.48;100.00
7297;BME280;40758;54.038;11.684;2022-11-25T07:44:34;101389.13;;;1.58;100.00
7297;BME280;40758;54.038;11.684;2022-11-25T07:47:03;101382.09;;;1.57;100.00
7297;BME280;40758;54.038;11.684;2022-11-25T07:49:32;101382.00;;;1.60;100.00
7297;BME280;40758;54.038;11.684;2022-11-25T07:52:01;101378.09;;;1.70;100.00
7297;BME280;40758;54.038;11.684;2022-11-25T07:54:32;101383.28;;;1.73;100.00
7297;BME280;40758;54.038;11.684;2022-11-25T07:57:01;101377.75;;;1.79;100.00
7297;BME280;40758;54.038;11.684;2022-11-25T07:59:30;101378.16;;;1.92;100.00
7297;BME280;40758;54.038;11.684;2022-11-25T08:01:59;101380.66;;;1.96;100.00
7297;BME280;40758;54.038;11.684;2022-11-25T08:04:27;101382.59;;;1.91;100.00
7297;BME280;40758;54.038;11.684;2022-11-25T08:06:56;101389.31;;;2.01;100.00
7297;BME280;40758;54.038;11.684;2022-11-25T08:09:25;101382.84;;;2.09;100.00
7297;BME280;40758;54.038;11.684;2022-11-25T08:11:56;101378.88;;;2.20;100.00
7297;BME280;40758;54.038;11.684;2022-11-25T08:14:26;101385.31;;;2.13;100.00
7297;BME280;40758;54.038;11.684;2022-11-25T08:16:55;101377.75;;;2.26;100.00
7297;BME280;40758;54.038;11.684;2022-11-25T08:19:24;101376.91;;;2.25;100.00
7297;BME280;40758;54.038;11.684;2022-11-25T08:21:57;101370.38;;;2.34;100.00
7297;BME280;40758;54.038;11.684;2022-11-25T08:24:26;101370.50;;;2.31;100.00
7297;BME280;40758;54.038;11.684;2022-11-25T08:26:57;101374.63;;;2.38;100.00
7297;BME280;40758;54.038;11.684;2022-11-25T08:29:27;101384.38;;;2.37;100.00
7297;BME280;40758;54.038;11.684;2022-11-25T08:31:56;101379.00;;;2.39;100.00
7297;BME280;40758;54.038;11.684;2022-11-25T08:34:26;101386.44;;;2.29;100.00
7297;BME280;40758;54.038;11.684;2022-11-25T08:36:55;101376.56;;;2.34;100.00
7297;BME280;40758;54.038;11.684;2022-11-25T08:39:23;101391.47;;;2.37;100.00
7297;BME280;40758;54.038;11.684;2022-11-25T08:42:14;101362.59;;;2.29;100.00
7297;BME280;40758;54.038;11.684;2022-11-25T08:44:42;101371.06;;;2.39;100.00
7297;BME280;40758;54.038;11.684;2022-11-25T08:47:11;101369.91;;;2.46;100.00
7297;BME280;40758;54.038;11.684;2022-11-25T08:49:40;101372.59;;;2.44;100.00
7297;BME280;40758;54.038;11.684;2022-11-25T08:52:10;101371.97;;;2.60;100.00
7297;BME280;40758;54.038;11.684;2022-11-25T08:54:39;101376.31;;;2.62;100.00
7297;BME280;40758;54.038;11.684;2022-11-25T08:57:09;101375.50;;;2.60;100.00
7297;BME280;40758;54.038;11.684;2022-11-25T08:59:39;101376.78;;;2.72;100.00
7297;BME280;40758;54.038;11.684;2022-11-25T09:02:11;101375.44;;;2.62;100.00
7297;BME280;40758;54.038;11.684;2022-11-25T09:04:42;101383.41;;;2.62;100.00
7297;BME280;40758;54.038;11.684;2022-11-25T09:07:10;101377.91;;;2.66;100.00
7297;BME280;40758;54.038;11.684;2022-11-25T09:09:39;101371.31;;;2.76;100.00
7297;BME280;40758;54.038;11.684;2022-11-25T09:12:08;101373.09;;;2.76;100.00
7297;BME280;40758;54.038;11.684;2022-11-25T09:14:39;101382.47;;;2.84;100.00
7297;BME280;40758;54.038;11.684;2022-11-25T09:17:09;101374.09;;;2.95;100.00
7297;BME280;40758;54.038;11.684;2022-11-25T09:19:41;101377.88;;;3.10;100.00
7297;BME280;40758;54.038;11.684;2022-11-25T09:22:12;101376.75;;;3.15;100.00
7297;BME280;40758;54.038;11.684;2022-11-25T09:24:41;101377.00;;;3.09;100.00
7297;BME280;40758;54.038;11.684;2022-11-25T09:27:11;101384.00;;;3.12;100.00
7297;BME280;40758;54.038;11.684;2022-11-25T09:29:42;101389.84;;;3.20;100.00
7297;BME280;40758;54.038;11.684;2022-11-25T09:32:10;101390.63;;;3.22;100.00
7297;BME280;40758;54.038;11.684;2022-11-25T09:34:39;101394.38;;;3.38;100.00
7297;BME280;40758;54.038;11.684;2022-11-25T09:37:10;101389.31;;;3.32;100.00
7297;BME280;40758;54.038;11.684;2022-11-25T09:39:39;101388.78;;;3.24;100.00
7297;BME280;40758;54.038;11.684;2022-11-25T09:42:24;101384.00;;;3.32;100.00
7297;BME280;40758;54.038;11.684;2022-11-25T09:45:39;101382.28;;;3.31;100.00
7297;BME280;40758;54.038;11.684;2022-11-25T09:48:51;101378.03;;;3.47;100.00
7297;BME280;40758;54.038;11.684;2022-11-25T09:51:31;101381.59;;;3.46;100.00
7297;BME280;40758;54.038;11.684;2022-11-25T09:54:13;101386.41;;;3.38;100.00
7297;BME280;40758;54.038;11.684;2022-11-25T09:56:51;101380.03;;;3.42;100.00
7297;BME280;40758;54.038;11.684;2022-11-25T09:59:30;101381.50;;;3.49;100.00
7297;BME280;40758;54.038;11.684;2022-11-25T10:02:16;101377.63;;;3.56;100.00
7297;BME280;40758;54.038;11.684;2022-11-25T10:04:56;101376.16;;;3.70;100.00
7297;BME280;40758;54.038;11.684;2022-11-25T10:07:37;101377.47;;;3.80;100.00
7297;BME280;40758;54.038;11.684;2022-11-25T10:10:21;101366.81;;;4.00;100.00
7297;BME280;40758;54.038;11.684;2022-11-25T10:12:55;101368.25;;;4.07;100.00
7297;BME280;40758;54.038;11.684;2022-11-25T10:15:29;101364.50;;;4.11;100.00
7297;BME280;40758;54.038;11.684;2022-11-25T10:18:09;101365.66;;;4.24;100.00
7297;BME280;40758;54.038;11.684;2022-11-25T10:20:42;101362.25;;;4.39;100.00
7297;BME280;40758;54.038;11.684;2022-11-25T10:23:20;101365.50;;;4.27;100.00
7297;BME280;40758;54.038;11.684;2022-11-25T10:26:02;101364.50;;;4.11;100.00
7297;BME280;40758;54.038;11.684;2022-11-25T10:28:44;101379.44;;;4.32;100.00
7297;BME280;40758;54.038;11.684;2022-11-25T10:31:23;101373.34;;;4.30;100.00
7297;BME280;40758;54.038;11.684;2022-11-25T10:33:58;101375.84;;;4.33;100.00
7297;BME280;40758;54.038;11.684;2022-11-25T10:36:32;101373.78;;;4.40;100.00
7297;BME280;40758;54.038;11.684;2022-11-25T10:39:08;101366.94;;;4.34;100.00
7297;BME280;40758;54.038;11.684;2022-11-25T10:41:49;101357.88;;;4.38;100.00
7297;BME280;40758;54.038;11.684;2022-11-25T10:44:25;101363.56;;;4.50;100.00
7297;BME280;40758;54.038;11.684;2022-11-25T10:47:16;101368.09;;;4.47;100.00
7297;BME280;40758;54.038;11.684;2022-11-25T10:50:06;101363.41;;;4.53;100.00
7297;BME280;40758;54.038;11.684;2022-11-25T10:52:48;101366.94;;;4.53;100.00
7297;BME280;40758;54.038;11.684;2022-11-25T10:55:23;101362.19;;;4.60;100.00
7297;BME280;40758;54.038;11.684;2022-11-25T10:57:54;101356.25;;;4.72;100.00
7297;BME280;40758;54.038;11.684;2022-11-25T11:00:29;101352.81;;;4.70;100.00
7297;BME280;40758;54.038;11.684;2022-11-25T11:03:12;101350.94;;;4.72;100.00
7297;BME280;40758;54.038;11.684;2022-11-25T11:05:50;101354.84;;;4.65;100.00
7297;BME280;40758;54.038;11.684;2022-11-25T11:08:22;101345.78;;;4.69;100.00
7297;BME280;40758;54.038;11.684;2022-11-25T11:11:16;101350.91;;;4.55;100.00
7297;BME280;40758;54.038;11.684;2022-11-25T11:13:47;101344.56;;;4.38;100.00
7297;BME280;40758;54.038;11.684;2022-11-25T11:16:30;101344.84;;;4.51;100.00
7297;BME280;40758;54.038;11.684;2022-11-25T11:19:05;101346.66;;;4.51;100.00
7297;BME280;40758;54.038;11.684;2022-11-25T11:21:38;101344.34;;;4.62;100.00
7297;BME280;40758;54.038;11.684;2022-11-25T11:24:25;101352.69;;;4.54;100.00
7297;BME280;40758;54.038;11.684;2022-11-25T11:27:04;101359.56;;;4.77;100.00
7297;BME280;40758;54.038;11.684;2022-11-25T11:29:34;101370.19;;;4.77;100.00
7297;BME280;40758;54.038;11.684;2022-11-25T11:32:06;101364.31;;;4.70;100.00
7297;BME280;40758;54.038;11.684;2022-11-25T11:34:51;101377.56;;;4.72;100.00
7297;BME280;40758;54.038;11.684;2022-11-25T11:37:39;101375.53;;;4.77;100.00
7297;BME280;40758;54.038;11.684;2022-11-25T11:40:35;101385.81;;;4.84;100.00
7297;BME280;40758;54.038;11.684;2022-11-25T11:43:36;101386.88;;;4.99;100.00
7297;BME280;40758;54.038;11.684;2022-11-25T11:46:26;101395.06;;;4.95;100.00
7297;BME280;40758;54.038;11.684;2022-11-25T11:49:28;101388.78;;;4.96;100.00
7297;BME280;40758;54.038;11.684;2022-11-25T11:52:13;101394.13;;;4.96;100.00
7297;BME280;40758;54.038;11.684;2022-11-25T11:54:53;101387.22;;;4.92;100.00
7297;BME280;40758;54.038;11.684;2022-11-25T11:57:41;101379.94;;;4.95;100.00
7297;BME280;40758;54.038;11.684;2022-11-25T12:00:27;101378.41;;;5.08;100.00
7297;BME280;40758;54.038;11.684;2022-11-25T12:03:11;101373.44;;;5.01;100.00
7297;BME280;40758;54.038;11.684;2022-11-25T12:05:41;101379.34;;;5.07;100.00
7297;BME280;40758;54.038;11.684;2022-11-25T12:08:17;101380.13;;;5.09;100.00
7297;BME280;40758;54.038;11.684;2022-11-25T12:11:00;101379.13;;;5.12;100.00
7297;BME280;40758;54.038;11.684;2022-11-25T12:13:42;101376.47;;;5.12;100.00
7297;BME280;40758;54.038;11.684;2022-11-25T12:16:20;101387.19;;;5.10;100.00
7297;BME280;40758;54.038;11.684;2022-11-25T12:18:57;101390.72;;;5.11;100.00
7297;BME280;40758;54.038;11.684;2022-11-25T12:21:43;101391.72;;;5.08;100.00
7297;BME280;40758;54.038;11.684;2022-11-25T12:24:22;101386.38;;;5.08;100.00
7297;BME280;40758;54.038;11.684;2022-11-25T12:27:01;101377.69;;;5.05;100.00
7297;BME280;40758;54.038;11.684;2022-11-25T12:29:38;101381.22;;;5.05;100.00
7297;BME280;40758;54.038;11.684;2022-11-25T12:32:40;101380.06;;;5.11;100.00
7297;BME280;40758;54.038;11.684;2022-11-25T12:35:24;101378.88;;;5.16;100.00
7297;BME280;40758;54.038;11.684;2022-11-25T12:38:04;101373.88;;;5.10;100.00
7297;BME280;40758;54.038;11.684;2022-11-25T12:40:46;101367.81;;;5.07;100.00
7297;BME280;40758;54.038;11.684;2022-11-25T12:43:32;101359.19;;;5.02;100.00
7297;BME280;40758;54.038;11.684;2022-11-25T12:46:18;101353.31;;;4.95;100.00
7297;BME280;40758;54.038;11.684;2022-11-25T12:48:52;101355.97;;;5.12;100.00
7297;BME280;40758;54.038;11.684;2022-11-25T12:51:55;101350.75;;;5.11;100.00
7297;BME280;40758;54.038;11.684;2022-11-25T12:55:11;101360.25;;;5.16;100.00
7297;BME280;40758;54.038;11.684;2022-11-25T13:01:36;101374.34;;;5.18;100.00
7297;BME280;40758;54.038;11.684;2022-11-25T13:04:53;101376.84;;;5.21;100.00
7297;BME280;40758;54.038;11.684;2022-11-25T13:07:57;101374.81;;;5.26;100.00
7297;BME280;40758;54.038;11.684;2022-11-25T13:11:04;101381.94;;;5.26;100.00
7297;BME280;40758;54.038;11.684;2022-11-25T13:13:51;101377.31;;;5.29;100.00
7297;BME280;40758;54.038;11.684;2022-11-25T13:16:27;101379.44;;;5.23;100.00
7297;BME280;40758;54.038;11.684;2022-11-25T13:18:59;101378.41;;;5.25;100.00
7297;BME280;40758;54.038;11.684;2022-11-25T13:21:29;101385.63;;;5.23;100.00
7297;BME280;40758;54.038;11.684;2022-11-25T13:23:58;101380.31;;;5.23;100.00
7297;BME280;40758;54.038;11.684;2022-11-25T13:26:48;101381.06;;;5.25;100.00
7297;BME280;40758;54.038;11.684;2022-11-25T13:30:00;101388.19;;;5.25;100.00
7297;BME280;40758;54.038;11.684;2022-11-25T13:32:39;101385.47;;;5.26;100.00
7297;BME280;40758;54.038;11.684;2022-11-25T13:35:37;101385.63;;;5.23;100.00